This is the latest recevied weather packets stored in our database for station/object K1ABC. If no packets are shown the sender has not sent any weather packets the latest 10 day(s).
| Time | Temp. | Humidity | Pressure | Rain* | Wind** | Luminosity | Snow |
|---|---|---|---|---|---|---|---|
| 1777877131 | 6.11° C | 62% | 1009.4 hPa | 0 mm | - | - | - |
| 1777876560 | 6.11° C | 62% | 1009.4 hPa | 0 mm | - | - | - |
| 1777876236 | 6.11° C | 64% | 1009.4 hPa | 0 mm | - | - | - |
| 1777875908 | 5.56° C | 63% | 1009.4 hPa | 0 mm | - | - | - |
| 1777875321 | 5.56° C | 63% | 1009.5 hPa | 0 mm | - | - | - |
| 1777873377 | 5° C | 65% | 1009.5 hPa | 0 mm | - | - | - |
| 1777873058 | 5° C | 66% | 1009.5 hPa | 0 mm | - | - | - |
| 1777870118 | 5° C | 66% | 1009.4 hPa | 0 mm | - | - | - |
| 1777869422 | 4.44° C | 68% | 1009.4 hPa | 0 mm | - | - | - |
| 1777868976 | 4.44° C | 67% | 1009.4 hPa | 0 mm | - | - | - |
| 1777867294 | 5° C | 66% | 1009.3 hPa | 0 mm | - | - | - |
| 1777865102 | 5° C | 65% | 1009.2 hPa | 0 mm | - | - | - |
| 1777864294 | 5.56° C | 64% | 1009.1 hPa | 0 mm | - | - | - |
| 1777862718 | 5.56° C | 64% | 1009.1 hPa | 0 mm | - | - | - |
| 1777862278 | 5.56° C | 62% | 1009.1 hPa | 0 mm | - | - | - |
| 1777861955 | 6.11° C | 61% | 1009.1 hPa | 0 mm | - | - | - |
| 1777861758 | 6.11° C | 61% | 1009 hPa | 0 mm | - | - | - |
| 1777861437 | 6.11° C | 61% | 1009 hPa | 0 mm | - | - | - |
| 1777861242 | 6.11° C | 61% | 1009 hPa | 0 mm | - | - | - |
| 1777860532 | 6.67° C | 57% | 1008.9 hPa | 0 mm | - | - | - |
| 1777857970 | 7.78° C | 54% | 1008.7 hPa | 0 mm | - | - | - |
| 1777857505 | 7.78° C | 54% | 1008.6 hPa | 0 mm | - | - | - |
| 1777855328 | 8.33° C | 50% | 1008.2 hPa | 0 mm | - | - | - |
| 1777855123 | 8.89° C | 50% | 1008.2 hPa | 0 mm | - | - | - |
| 1777854438 | 8.89° C | 49% | 1008.1 hPa | 0 mm | - | - | - |
* Rain latest hour (hover to see other rain measurements)
** Current wind speed in m/s (hover to see current wind gust speed)